Flomot, Texas
Current Conditions -  °F | °C
As of 8:35 AM on Wednesday 22 Oct 2014 (Local Time) from KPVW Reporting Station
Light Rain Light Rain  
Wind Chill: 57°   Ceiling: 4900
Heat Index: 57°   Visibility: 4mi
Dew Point: 56°   Wind: 0mph
Humidity: 96%   Direction: NA
Pressure: 30.11"   Gusts: NA
Location:  34.23°N, 100.99°W
Report Text: KPVW 221335Z AUTO 00000KT 4SM -RA SCT034 SCT042 OVC049 14/14 A3011 RMK AO2 T01410135
Loading
Personal Weather Stations






























Interactive Weather Map
Tropical Storm Tracking
New forecast layout! Learn more

10-Day Weather Forecast

Advertisements
Track Severe Weather on mobile